createdAt,value
2017-04-22T00:00:02.718Z,1024.56
2017-04-22T00:05:02.970Z,1024.49
2017-04-22T00:10:02.834Z,1024.49
2017-04-22T00:15:03.007Z,1024.41
2017-04-22T00:20:02.839Z,1024.36
2017-04-22T00:25:03.449Z,1024.35
2017-04-22T00:30:03.175Z,1024.35
2017-04-22T00:35:02.844Z,1024.33
2017-04-22T00:40:03.508Z,1024.3
2017-04-22T00:45:03.251Z,1024.37
2017-04-22T00:50:03.036Z,1024.57
2017-04-22T00:55:02.742Z,1024.5
2017-04-22T01:00:03.429Z,1024.64
2017-04-22T01:05:03.232Z,1024.64
2017-04-22T01:10:02.845Z,1024.58
2017-04-22T01:15:03.585Z,1024.47
2017-04-22T01:20:03.387Z,1024.54
2017-04-22T01:25:02.990Z,1024.52
2017-04-22T01:30:02.732Z,1024.57
2017-04-22T01:35:03.492Z,1024.47
2017-04-22T01:40:03.360Z,1024.53
2017-04-22T01:45:03.104Z,1024.49
2017-04-22T01:50:02.865Z,1024.52
2017-04-22T01:55:03.790Z,1024.64
2017-04-22T02:00:03.449Z,1024.59
2017-04-22T02:05:03.128Z,1024.55
2017-04-22T02:10:02.910Z,1024.57
2017-04-22T02:15:03.519Z,1024.64
2017-04-22T02:20:03.297Z,1024.61
2017-04-22T02:25:03.083Z,1024.56
2017-04-22T02:30:02.808Z,1024.53
2017-04-22T02:35:02.700Z,1024.53
2017-04-22T02:40:03.531Z,1024.51
2017-04-22T02:45:03.425Z,1024.5
2017-04-22T02:50:03.316Z,1024.43
2017-04-22T02:55:02.984Z,1024.43
2017-04-22T03:00:03.561Z,1024.36
2017-04-22T03:05:03.284Z,1024.39
2017-04-22T03:10:03.114Z,1024.5
2017-04-22T03:15:02.731Z,1024.53
2017-04-22T03:20:03.434Z,1024.41
2017-04-22T03:25:03.121Z,1024.58
2017-04-22T03:30:02.692Z,1024.56
2017-04-22T03:35:03.325Z,1024.63
2017-04-22T03:40:03.039Z,1024.49
2017-04-22T03:45:02.800Z,1024.48
2017-04-22T03:50:03.427Z,1024.47
2017-04-22T03:55:03.317Z,1024.47
2017-04-22T04:00:03.144Z,1024.48
2017-04-22T04:05:02.851Z,1024.51
2017-04-22T04:10:03.667Z,1024.5
2017-04-22T04:15:03.304Z,1024.47
2017-04-22T04:20:02.996Z,1024.56
2017-04-22T04:25:02.724Z,1024.35
2017-04-22T04:30:03.569Z,1024.41
2017-04-22T04:35:03.351Z,1024.41
2017-04-22T04:40:02.996Z,1024.47
2017-04-22T04:45:03.699Z,1024.63
2017-04-22T04:50:03.420Z,1024.58
2017-04-22T04:55:03.047Z,1024.7
2017-04-22T05:00:02.794Z,1024.7
2017-04-22T05:05:03.653Z,1024.79
2017-04-22T05:10:03.327Z,1024.88
2017-04-22T05:15:03.102Z,1024.87
2017-04-22T05:20:02.808Z,1024.89
2017-04-22T05:25:03.566Z,1024.98
2017-04-22T05:30:03.228Z,1024.93
2017-04-22T05:35:02.796Z,1024.98
2017-04-22T05:40:03.597Z,1024.96
2017-04-22T05:45:03.430Z,1025.02
2017-04-22T05:50:03.166Z,1025.08
2017-04-22T05:55:02.759Z,1025.09
2017-04-22T06:00:03.512Z,1025.13
2017-04-22T06:05:03.349Z,1025.23
2017-04-22T06:10:03.125Z,1025.19
2017-04-22T06:15:02.827Z,1025.36
2017-04-22T06:20:03.550Z,1025.33
2017-04-22T06:25:03.187Z,1025.41
2017-04-22T06:30:02.764Z,1025.47
2017-04-22T06:35:03.438Z,1025.48
2017-04-22T06:40:03.259Z,1025.5
2017-04-22T06:45:02.962Z,1025.47
2017-04-22T06:50:02.731Z,1025.61
2017-04-22T06:55:03.457Z,1025.51
2017-04-22T07:00:03.218Z,1025.45
2017-04-22T07:05:03.035Z,1025.46
2017-04-22T07:10:02.754Z,1025.43
2017-04-22T07:15:03.941Z,1025.43
2017-04-22T07:20:02.707Z,1025.38
2017-04-22T07:25:03.285Z,1025.37
2017-04-22T07:30:03.001Z,1025.4
2017-04-22T07:35:02.775Z,1025.34
2017-04-22T07:40:03.488Z,1025.39
2017-04-22T07:45:03.069Z,1025.42
2017-04-22T07:50:02.929Z,1025.32
2017-04-22T07:55:03.702Z,1025.57
2017-04-22T08:00:03.410Z,1025.53
2017-04-22T08:05:03.142Z,1025.5
2017-04-22T08:10:02.776Z,1025.56
2017-04-22T08:15:03.466Z,1025.7
2017-04-22T08:20:03.084Z,1025.82
2017-04-22T08:25:02.783Z,1026
2017-04-22T08:30:03.580Z,1025.92
2017-04-22T08:35:03.342Z,1025.91
2017-04-22T08:40:03.157Z,1025.78
2017-04-22T08:45:02.949Z,1025.75
2017-04-22T08:50:02.845Z,1025.75
2017-04-22T08:55:03.506Z,1025.73
2017-04-22T09:00:03.160Z,1025.84
2017-04-22T09:05:02.847Z,1025.74
2017-04-22T09:10:02.722Z,1025.77
2017-04-22T09:15:03.439Z,1025.69
2017-04-22T09:20:03.102Z,1025.73
2017-04-22T09:25:03.004Z,1025.77
2017-04-22T09:30:03.045Z,1025.63
2017-04-22T09:35:03.047Z,1025.69
2017-04-22T09:40:03.198Z,1025.69
2017-04-22T09:45:03.023Z,1025.64
2017-04-22T09:50:02.904Z,1025.55
2017-04-22T09:55:02.859Z,1025.47
2017-04-22T10:00:02.722Z,1025.43
2017-04-22T10:05:03.829Z,1025.43
2017-04-22T10:10:02.707Z,1025.45
2017-04-22T10:15:02.727Z,1025.55
2017-04-22T10:20:03.629Z,1025.45
2017-04-22T10:25:02.752Z,1025.46
2017-04-22T10:30:03.131Z,1025.48
2017-04-22T10:35:02.856Z,1025.48
2017-04-22T10:40:03.413Z,1025.42
2017-04-22T10:45:03.601Z,1025.35
2017-04-22T10:50:03.132Z,1025.33
2017-04-22T10:55:03.678Z,1025.43
2017-04-22T11:00:03.514Z,1025.51
2017-04-22T11:05:02.878Z,1025.48
2017-04-22T11:10:03.233Z,1025.41
2017-04-22T11:15:03.215Z,1025.37
2017-04-22T11:20:03.380Z,1025.38
2017-04-22T11:25:02.985Z,1025.25
2017-04-22T11:30:03.132Z,1025.34
2017-04-22T11:35:03.469Z,1025.36
2017-04-22T11:40:03.010Z,1025.26
2017-04-22T11:45:02.869Z,1025.24
2017-04-22T11:50:02.739Z,1025.21
2017-04-22T11:55:03.544Z,1025.18
2017-04-22T12:00:03.490Z,1025.06
2017-04-22T12:05:03.001Z,1024.86
2017-04-22T12:10:02.934Z,1024.94
2017-04-22T12:15:03.280Z,1024.95
2017-04-22T12:20:03.494Z,1024.9
2017-04-22T12:25:03.265Z,1024.97
2017-04-22T12:30:03.603Z,1024.96
2017-04-22T12:35:02.893Z,1025
2017-04-22T12:40:03.445Z,1025
2017-04-22T12:45:03.255Z,1024.91
2017-04-22T12:50:02.750Z,1024.64
2017-04-22T12:55:02.940Z,1024.77
2017-04-22T13:00:02.972Z,1024.77
2017-04-22T13:05:03.050Z,1024.8
2017-04-22T13:10:03.617Z,1024.79
2017-04-22T13:15:03.513Z,1024.73
2017-04-22T13:20:03.426Z,1024.71
2017-04-22T13:25:02.819Z,1024.67
2017-04-22T13:30:03.379Z,1024.53
2017-04-22T13:35:03.413Z,1024.67
2017-04-22T13:40:03.466Z,1024.59
2017-04-22T13:45:02.846Z,1024.63
2017-04-22T13:50:03.252Z,1024.58
2017-04-22T13:55:03.119Z,1024.56
2017-04-22T14:00:03.691Z,1024.59
2017-04-22T14:05:03.595Z,1024.53
2017-04-22T14:10:03.194Z,1024.56
2017-04-22T14:15:03.418Z,1024.57
2017-04-22T14:20:02.887Z,1024.42
2017-04-22T14:25:03.382Z,1024.42
2017-04-22T14:30:02.814Z,1024.37
2017-04-22T14:35:03.098Z,1024.33
2017-04-22T14:40:03.504Z,1024.27
2017-04-22T14:45:02.698Z,1024.34
2017-04-22T14:50:02.886Z,1024.26
2017-04-22T14:55:03.236Z,1024.33
2017-04-22T15:00:04.111Z,1024.33
2017-04-22T15:05:03.954Z,1024.21
2017-04-22T15:10:02.888Z,1024.32
2017-04-22T15:15:03.317Z,1024.29
2017-04-22T15:20:08.424Z,1024.22
2017-04-22T15:25:03.382Z,1024.28
2017-04-22T15:30:03.379Z,1024.26
2017-04-22T15:35:04.957Z,1024.29
2017-04-22T15:40:05.400Z,1024.34
2017-04-22T15:45:04.254Z,1024.25
2017-04-22T15:50:03.570Z,1024.18
2017-04-22T15:55:03.365Z,1024.22
2017-04-22T16:00:03.223Z,1024.22
2017-04-22T16:05:03.462Z,1024.23
2017-04-22T16:10:08.049Z,1024.32
2017-04-22T16:15:03.993Z,1024.26
2017-04-22T16:20:04.008Z,1024.23
2017-04-22T16:25:02.935Z,1024.27
2017-04-22T16:30:05.376Z,1024.21
2017-04-22T16:35:03.744Z,1024.18
2017-04-22T16:40:04.428Z,1024.23
2017-04-22T16:45:03.474Z,1024.22
2017-04-22T16:50:04.609Z,1024.26
2017-04-22T16:55:03.951Z,1024.26
2017-04-22T17:00:03.584Z,1024.22
2017-04-22T17:05:03.520Z,1024.25
2017-04-22T17:10:08.014Z,1024.34
2017-04-22T17:15:04.162Z,1024.31
2017-04-22T17:20:04.663Z,1024.36
2017-04-22T17:25:03.511Z,1024.33
2017-04-22T17:30:07.815Z,1024.27
2017-04-22T17:35:04.079Z,1024.23
2017-04-22T17:40:03.860Z,1024.25
2017-04-22T17:45:04.090Z,1024.32
2017-04-22T17:50:08.839Z,1024.24
2017-04-22T17:55:04.506Z,1024.31
2017-04-22T18:00:04.125Z,1024.31
2017-04-22T18:05:04.726Z,1024.3
2017-04-22T18:10:05.168Z,1024.37
2017-04-22T18:15:05.179Z,1024.41
2017-04-22T18:20:05.688Z,1024.42
2017-04-22T18:25:04.275Z,1024.38
2017-04-22T18:30:02.985Z,1024.44
2017-04-22T18:35:06.105Z,1024.4
2017-04-22T18:40:10.239Z,1024.4
2017-04-22T18:45:06.945Z,1024.41
2017-04-22T18:55:06.087Z,1024.41
2017-04-22T19:00:07.488Z,1024.44
2017-04-22T19:05:07.532Z,1024.51
2017-04-22T19:10:04.222Z,1024.53
2017-04-22T19:15:13.341Z,1024.57
2017-04-22T19:20:07.052Z,1024.66
2017-04-22T19:25:07.335Z,1024.74
2017-04-22T19:30:04.870Z,1024.81
2017-04-22T19:35:06.297Z,1024.81
2017-04-22T19:40:05.320Z,1024.82
2017-04-22T19:45:03.525Z,1024.81
2017-04-22T19:50:06.187Z,1024.81
2017-04-22T19:55:07.723Z,1024.83
2017-04-22T20:00:08.189Z,1024.82
2017-04-22T20:05:05.293Z,1024.85
2017-04-22T20:10:10.534Z,1024.84
2017-04-22T20:15:06.300Z,1024.87
2017-04-22T20:20:05.568Z,1024.86
2017-04-22T20:25:07.194Z,1024.84
2017-04-22T20:30:07.069Z,1024.93
2017-04-22T20:35:04.864Z,1025.03
2017-04-22T20:40:07.017Z,1025.06
2017-04-22T20:45:04.410Z,1025.06
2017-04-22T20:50:08.244Z,1025.14
2017-04-22T20:55:03.901Z,1025.2
2017-04-22T21:00:06.519Z,1025.22
2017-04-22T21:05:02.884Z,1025.18
2017-04-22T21:10:03.684Z,1025.21
2017-04-22T21:15:03.302Z,1025.22
2017-04-22T21:20:02.990Z,1025.28
2017-04-22T21:25:02.710Z,1025.23
2017-04-22T21:30:03.336Z,1025.17
2017-04-22T21:35:02.913Z,1025.24
2017-04-22T21:40:03.842Z,1025.12
2017-04-22T21:45:03.564Z,1025.27
2017-04-22T21:50:03.209Z,1025.19
2017-04-22T21:55:02.808Z,1025.23
2017-04-22T22:00:03.576Z,1025.2
2017-04-22T22:05:03.447Z,1025.22
2017-04-22T22:10:03.095Z,1025.21
2017-04-22T22:15:02.837Z,1025.11
2017-04-22T22:20:03.445Z,1025.07
2017-04-22T22:25:03.011Z,1025.13
2017-04-22T22:30:02.682Z,1025.13
2017-04-22T22:35:03.410Z,1025.13
2017-04-22T22:40:03.096Z,1025.11
2017-04-22T22:45:03.680Z,1025.11
2017-04-22T22:51:06.523Z,1025.07
2017-04-22T22:55:03.161Z,1025.08
2017-04-22T23:00:02.902Z,1025.05
2017-04-22T23:05:03.593Z,1025.08
2017-04-22T23:10:03.252Z,1025.06
2017-04-22T23:15:02.919Z,1025.09
2017-04-22T23:20:02.721Z,1025.13
2017-04-22T23:25:03.262Z,1025.12
2017-04-22T23:30:02.825Z,1025.12
2017-04-22T23:35:03.554Z,1025.14
2017-04-22T23:40:03.338Z,1025.22
2017-04-22T23:45:02.941Z,1025.24
2017-04-22T23:50:03.666Z,1025.2
2017-04-22T23:55:03.262Z,1025.14
